sensor_id;sensor_type;location;lat;lon;timestamp;temperature;humidity
35463;DHT22;21578;47.892;9.970;2022-12-18T00:41:41;-5.40;96.60
35463;DHT22;21578;47.892;9.970;2022-12-18T00:46:45;-5.40;96.60
35463;DHT22;21578;47.892;9.970;2022-12-18T00:51:35;-5.50;96.60
35463;DHT22;21578;47.892;9.970;2022-12-18T01:17:40;-5.40;96.60
35463;DHT22;21578;47.892;9.970;2022-12-18T01:22:27;-5.30;96.60
35463;DHT22;21578;47.892;9.970;2022-12-18T01:27:15;-5.30;96.60
35463;DHT22;21578;47.892;9.970;2022-12-18T01:48:51;-5.50;96.60
35463;DHT22;21578;47.892;9.970;2022-12-18T01:53:40;-5.50;96.60
35463;DHT22;21578;47.892;9.970;2022-12-18T01:58:35;-5.60;96.60
35463;DHT22;21578;47.892;9.970;2022-12-18T02:03:23;-5.70;96.60
35463;DHT22;21578;47.892;9.970;2022-12-18T02:08:15;-5.80;96.60
35463;DHT22;21578;47.892;9.970;2022-12-18T02:13:13;-5.80;96.60
35463;DHT22;21578;47.892;9.970;2022-12-18T02:18:05;-5.70;96.60
35463;DHT22;21578;47.892;9.970;2022-12-18T02:23:12;-5.60;96.60
35463;DHT22;21578;47.892;9.970;2022-12-18T02:28:08;-5.50;96.60
35463;DHT22;21578;47.892;9.970;2022-12-18T02:32:57;-5.60;96.60
35463;DHT22;21578;47.892;9.970;2022-12-18T02:37:47;-5.60;96.60
35463;DHT22;21578;47.892;9.970;2022-12-18T02:42:34;-5.60;96.60
35463;DHT22;21578;47.892;9.970;2022-12-18T02:47:25;-5.50;96.60
35463;DHT22;21578;47.892;9.970;2022-12-18T02:52:20;-5.50;96.60
35463;DHT22;21578;47.892;9.970;2022-12-18T02:57:16;-5.70;96.60
35463;DHT22;21578;47.892;9.970;2022-12-18T03:02:10;-5.80;96.60
35463;DHT22;21578;47.892;9.970;2022-12-18T03:07:09;-5.90;96.60
35463;DHT22;21578;47.892;9.970;2022-12-18T03:12:06;-5.90;96.60
35463;DHT22;21578;47.892;9.970;2022-12-18T03:17:14;-5.90;96.60
35463;DHT22;21578;47.892;9.970;2022-12-18T03:22:09;-6.00;96.60
35463;DHT22;21578;47.892;9.970;2022-12-18T03:27:00;-6.00;96.60
35463;DHT22;21578;47.892;9.970;2022-12-18T03:31:53;-6.00;96.60
35463;DHT22;21578;47.892;9.970;2022-12-18T03:36:41;-6.10;96.60
35463;DHT22;21578;47.892;9.970;2022-12-18T03:41:33;-6.10;96.60
35463;DHT22;21578;47.892;9.970;2022-12-18T03:46:26;-6.00;96.60
35463;DHT22;21578;47.892;9.970;2022-12-18T03:51:18;-6.00;96.60
35463;DHT22;21578;47.892;9.970;2022-12-18T03:56:10;-6.00;96.60
35463;DHT22;21578;47.892;9.970;2022-12-18T04:01:01;-6.00;96.60
35463;DHT22;21578;47.892;9.970;2022-12-18T04:05:51;-6.00;96.60
35463;DHT22;21578;47.892;9.970;2022-12-18T04:10:39;-6.10;96.60
35463;DHT22;21578;47.892;9.970;2022-12-18T04:15:26;-6.10;96.60
35463;DHT22;21578;47.892;9.970;2022-12-18T04:20:14;-6.00;96.60
35463;DHT22;21578;47.892;9.970;2022-12-18T04:25:02;-6.00;96.60
35463;DHT22;21578;47.892;9.970;2022-12-18T04:29:49;-6.00;96.60
35463;DHT22;21578;47.892;9.970;2022-12-18T04:34:36;-6.10;96.60
35463;DHT22;21578;47.892;9.970;2022-12-18T04:39:24;-6.10;96.60
35463;DHT22;21578;47.892;9.970;2022-12-18T04:44:11;-6.20;96.60
35463;DHT22;21578;47.892;9.970;2022-12-18T04:48:58;-6.20;96.60
35463;DHT22;21578;47.892;9.970;2022-12-18T04:53:45;-6.30;96.60
35463;DHT22;21578;47.892;9.970;2022-12-18T04:58:33;-6.30;96.60
35463;DHT22;21578;47.892;9.970;2022-12-18T05:03:20;-6.30;96.60
35463;DHT22;21578;47.892;9.970;2022-12-18T05:08:07;-6.40;96.60
35463;DHT22;21578;47.892;9.970;2022-12-18T05:12:54;-6.50;96.60
35463;DHT22;21578;47.892;9.970;2022-12-18T05:17:46;-6.60;96.60
35463;DHT22;21578;47.892;9.970;2022-12-18T05:22:33;-6.60;96.60
35463;DHT22;21578;47.892;9.970;2022-12-18T05:27:19;-6.60;96.60
35463;DHT22;21578;47.892;9.970;2022-12-18T05:32:07;-6.70;96.60
35463;DHT22;21578;47.892;9.970;2022-12-18T05:36:55;-6.70;96.60
35463;DHT22;21578;47.892;9.970;2022-12-18T05:41:42;-6.70;96.60
35463;DHT22;21578;47.892;9.970;2022-12-18T05:46:29;-6.80;96.60
35463;DHT22;21578;47.892;9.970;2022-12-18T05:51:18;-6.80;96.60
35463;DHT22;21578;47.892;9.970;2022-12-18T05:56:08;-6.80;96.60
35463;DHT22;21578;47.892;9.970;2022-12-18T06:01:05;-6.80;96.60
35463;DHT22;21578;47.892;9.970;2022-12-18T06:05:52;-6.80;96.60
35463;DHT22;21578;47.892;9.970;2022-12-18T06:10:40;-6.80;96.60
35463;DHT22;21578;47.892;9.970;2022-12-18T06:15:29;-6.80;96.60
35463;DHT22;21578;47.892;9.970;2022-12-18T06:20:16;-6.80;96.60
35463;DHT22;21578;47.892;9.970;2022-12-18T06:25:04;-6.90;96.60
35463;DHT22;21578;47.892;9.970;2022-12-18T06:29:51;-6.90;96.60
35463;DHT22;21578;47.892;9.970;2022-12-18T06:34:39;-6.90;96.60
35463;DHT22;21578;47.892;9.970;2022-12-18T06:39:27;-7.00;96.60
35463;DHT22;21578;47.892;9.970;2022-12-18T06:44:14;-6.90;96.60
35463;DHT22;21578;47.892;9.970;2022-12-18T06:49:01;-6.80;96.60
35463;DHT22;21578;47.892;9.970;2022-12-18T06:53:49;-6.90;96.60
35463;DHT22;21578;47.892;9.970;2022-12-18T06:58:36;-7.00;96.60
35463;DHT22;21578;47.892;9.970;2022-12-18T07:03:23;-7.00;96.60
35463;DHT22;21578;47.892;9.970;2022-12-18T07:08:10;-7.00;96.60
35463;DHT22;21578;47.892;9.970;2022-12-18T07:12:58;-7.10;96.60
35463;DHT22;21578;47.892;9.970;2022-12-18T07:17:45;-7.20;96.60
35463;DHT22;21578;47.892;9.970;2022-12-18T07:22:32;-7.20;96.60
35463;DHT22;21578;47.892;9.970;2022-12-18T07:27:19;-7.20;96.60
35463;DHT22;21578;47.892;9.970;2022-12-18T21:34:25;-4.10;96.60
35463;DHT22;21578;47.892;9.970;2022-12-18T21:39:12;-3.90;96.60
35463;DHT22;21578;47.892;9.970;2022-12-18T21:43:59;-3.80;96.60
35463;DHT22;21578;47.892;9.970;2022-12-18T21:48:55;-4.00;96.60
35463;DHT22;21578;47.892;9.970;2022-12-18T21:53:44;-4.00;96.60
35463;DHT22;21578;47.892;9.970;2022-12-18T21:58:31;-4.00;96.60
35463;DHT22;21578;47.892;9.970;2022-12-18T22:03:18;-4.00;96.60
35463;DHT22;21578;47.892;9.970;2022-12-18T22:08:05;-3.90;96.60
35463;DHT22;21578;47.892;9.970;2022-12-18T22:12:53;-3.80;96.60
35463;DHT22;21578;47.892;9.970;2022-12-18T22:17:40;-3.60;96.60
35463;DHT22;21578;47.892;9.970;2022-12-18T22:22:27;-3.60;96.60
35463;DHT22;21578;47.892;9.970;2022-12-18T22:27:14;-3.80;96.60
35463;DHT22;21578;47.892;9.970;2022-12-18T22:32:02;-3.80;96.60
35463;DHT22;21578;47.892;9.970;2022-12-18T22:36:49;-3.60;96.60
35463;DHT22;21578;47.892;9.970;2022-12-18T22:41:36;-3.70;96.60
35463;DHT22;21578;47.892;9.970;2022-12-18T22:46:24;-3.80;96.60
35463;DHT22;21578;47.892;9.970;2022-12-18T22:51:15;-3.70;96.60
35463;DHT22;21578;47.892;9.970;2022-12-18T22:56:03;-3.80;96.60
35463;DHT22;21578;47.892;9.970;2022-12-18T23:00:50;-3.90;96.60
35463;DHT22;21578;47.892;9.970;2022-12-18T23:05:37;-3.80;96.60
35463;DHT22;21578;47.892;9.970;2022-12-18T23:10:25;-3.60;96.60
35463;DHT22;21578;47.892;9.970;2022-12-18T23:15:12;-3.70;96.60
35463;DHT22;21578;47.892;9.970;2022-12-18T23:19:59;-3.60;96.60
35463;DHT22;21578;47.892;9.970;2022-12-18T23:24:46;-3.50;96.60
35463;DHT22;21578;47.892;9.970;2022-12-18T23:29:35;-3.50;96.60
35463;DHT22;21578;47.892;9.970;2022-12-18T23:34:22;-3.40;96.60
35463;DHT22;21578;47.892;9.970;2022-12-18T23:39:10;-3.20;96.60
35463;DHT22;21578;47.892;9.970;2022-12-18T23:43:58;-3.30;96.60
35463;DHT22;21578;47.892;9.970;2022-12-18T23:48:47;-3.40;96.60
35463;DHT22;21578;47.892;9.970;2022-12-18T23:53:34;-3.40;96.60
35463;DHT22;21578;47.892;9.970;2022-12-18T23:58:21;-3.50;96.60
